createdAt,value
2023-05-02T00:00:21.286Z,50.40
2023-05-02T00:01:23.637Z,50.30
2023-05-02T00:02:25.995Z,50.62
2023-05-02T00:03:29.113Z,50.67
2023-05-02T00:04:32.125Z,50.66
2023-05-02T00:05:34.873Z,50.67
2023-05-02T00:06:37.370Z,50.62
2023-05-02T00:07:39.692Z,50.76
2023-05-02T00:08:41.736Z,50.81
2023-05-02T00:09:44.028Z,50.92
2023-05-02T00:10:46.227Z,50.75
2023-05-02T00:11:48.324Z,50.89
2023-05-02T00:12:50.339Z,50.77
2023-05-02T00:13:52.335Z,50.73
2023-05-02T00:14:54.456Z,50.83
2023-05-02T00:15:56.580Z,50.90
2023-05-02T00:16:58.792Z,50.67
2023-05-02T00:18:01.066Z,50.76
2023-05-02T00:19:03.393Z,50.79
2023-05-02T00:20:09.962Z,50.81
2023-05-02T00:21:12.240Z,50.96
2023-05-02T00:22:14.450Z,51.00
2023-05-02T00:23:16.586Z,51.13
2023-05-02T00:24:18.803Z,51.28
2023-05-02T00:25:21.453Z,51.17
2023-05-02T00:26:23.874Z,51.11
2023-05-02T00:27:26.137Z,51.04
2023-05-02T00:28:28.349Z,51.20
2023-05-02T00:29:30.624Z,51.49
2023-05-02T00:30:34.714Z,51.40
2023-05-02T00:31:36.942Z,51.32
2023-05-02T00:32:39.096Z,51.41
2023-05-02T00:33:41.120Z,51.40
2023-05-02T00:34:43.312Z,51.58
2023-05-02T00:35:45.522Z,51.54
2023-05-02T00:36:48.043Z,51.63
2023-05-02T00:37:50.092Z,51.60
2023-05-02T00:38:54.968Z,51.54
2023-05-02T00:39:57.214Z,51.50
2023-05-02T00:41:00.291Z,51.76
2023-05-02T00:42:02.429Z,51.80
2023-05-02T00:43:04.682Z,51.71
2023-05-02T00:44:06.690Z,51.84
2023-05-02T00:45:12.140Z,52.05
2023-05-02T00:46:14.767Z,52.06
2023-05-02T00:47:17.069Z,51.97
2023-05-02T00:48:19.252Z,52.13
2023-05-02T00:49:21.450Z,52.18
2023-05-02T00:50:26.667Z,52.16
2023-05-02T00:51:29.271Z,52.35
2023-05-02T00:52:31.510Z,52.32
2023-05-02T00:53:35.516Z,52.17
2023-05-02T00:54:38.062Z,52.10
2023-05-02T00:55:40.280Z,52.18
2023-05-02T00:56:42.485Z,52.36
2023-05-02T00:57:44.761Z,52.33
2023-05-02T00:58:47.326Z,52.35
2023-05-02T00:59:50.772Z,52.43
2023-05-02T01:01:25.003Z,52.39
2023-05-02T01:02:39.797Z,52.32
2023-05-02T01:04:01.961Z,51.96
2023-05-02T01:05:11.042Z,52.04
2023-05-02T01:06:32.399Z,52.13
2023-05-02T01:07:47.745Z,52.13
2023-05-02T01:08:52.959Z,51.98
2023-05-02T01:09:59.289Z,52.03
2023-05-02T01:11:11.893Z,52.36
2023-05-02T01:12:30.195Z,52.42
2023-05-02T01:17:55.409Z,52.03
2023-05-02T01:18:57.718Z,52.08
2023-05-02T01:21:30.643Z,52.65
2023-05-02T01:22:32.657Z,52.88
2023-05-02T01:23:47.439Z,52.83
2023-05-02T01:25:16.522Z,52.99
2023-05-02T01:26:38.165Z,52.91
2023-05-02T01:28:02.127Z,52.72
2023-05-02T01:29:05.579Z,52.80
2023-05-02T01:30:08.646Z,52.90
2023-05-02T01:31:10.711Z,52.94
2023-05-02T01:32:13.097Z,52.97
2023-05-02T01:33:15.979Z,53.01
2023-05-02T01:34:19.540Z,53.15
2023-05-02T01:35:21.655Z,53.25
2023-05-02T01:36:25.611Z,53.25
2023-05-02T01:37:29.734Z,53.14
2023-05-02T01:38:31.906Z,53.21
2023-05-02T01:39:34.008Z,53.30
2023-05-02T01:40:36.140Z,53.33
2023-05-02T01:41:38.426Z,53.39
2023-05-02T01:42:40.731Z,53.56
2023-05-02T01:43:42.946Z,53.38
2023-05-02T01:44:46.288Z,53.23
2023-05-02T01:45:49.161Z,53.40
2023-05-02T01:46:52.645Z,53.49
2023-05-02T01:47:55.517Z,53.38
2023-05-02T01:48:58.643Z,53.39
2023-05-02T01:50:01.496Z,53.42
2023-05-02T01:51:05.151Z,53.38
2023-05-02T01:52:07.999Z,53.29
2023-05-02T01:53:10.704Z,53.26
2023-05-02T01:54:13.373Z,53.33
2023-05-02T01:55:17.177Z,53.39
2023-05-02T01:56:20.625Z,53.40
2023-05-02T01:57:22.765Z,53.38
2023-05-02T01:58:26.716Z,53.16
2023-05-02T01:59:28.917Z,53.19
2023-05-02T02:00:33.400Z,53.24
2023-05-02T02:01:38.377Z,53.17
2023-05-02T02:02:41.228Z,53.14
2023-05-02T02:03:43.216Z,53.28
2023-05-02T02:04:45.729Z,53.32
2023-05-02T02:05:48.327Z,53.21
2023-05-02T02:06:57.632Z,53.33
2023-05-02T02:08:00.522Z,53.39
2023-05-02T02:09:02.791Z,53.25
2023-05-02T02:10:08.528Z,53.21
2023-05-02T02:11:11.900Z,53.26
2023-05-02T02:12:28.658Z,53.32
2023-05-02T02:13:33.484Z,53.29
2023-05-02T02:14:41.262Z,53.38
2023-05-02T02:15:43.494Z,53.55
2023-05-02T02:16:46.188Z,53.60
2023-05-02T02:19:14.188Z,53.65
2023-05-02T02:20:16.602Z,54.00
2023-05-02T02:21:18.712Z,53.65
2023-05-02T02:22:21.323Z,53.53
2023-05-02T02:23:25.322Z,53.66
2023-05-02T02:24:27.506Z,53.69
2023-05-02T02:25:29.880Z,53.79
2023-05-02T02:26:31.885Z,53.80
2023-05-02T02:27:33.952Z,53.82
2023-05-02T02:28:36.205Z,53.77
2023-05-02T02:29:38.304Z,53.80
2023-05-02T02:30:41.560Z,53.77
2023-05-02T02:31:43.700Z,53.72
2023-05-02T02:32:45.913Z,53.66
2023-05-02T02:33:48.247Z,53.66
2023-05-02T02:34:50.983Z,53.61
2023-05-02T02:36:10.182Z,53.63
2023-05-02T02:37:15.312Z,53.68
2023-05-02T02:38:26.996Z,53.69
2023-05-02T02:40:55.694Z,53.78
2023-05-02T02:43:42.929Z,53.81
2023-05-02T02:44:58.133Z,53.80
2023-05-02T02:46:15.904Z,53.71
2023-05-02T02:47:31.142Z,53.60
2023-05-02T02:50:21.920Z,53.55
2023-05-02T02:51:30.687Z,53.67
2023-05-02T02:52:39.653Z,53.51
2023-05-02T02:54:18.969Z,53.41
2023-05-02T02:55:35.655Z,53.33
2023-05-02T02:56:39.716Z,52.88
2023-05-02T02:57:47.823Z,52.87
2023-05-02T02:58:59.409Z,52.74
2023-05-02T03:00:11.238Z,52.85
2023-05-02T03:01:18.315Z,53.14
2023-05-02T03:02:22.696Z,52.99
2023-05-02T03:03:25.303Z,52.96
2023-05-02T03:04:30.203Z,53.05
2023-05-02T03:05:32.720Z,53.14
2023-05-02T03:06:35.138Z,53.21
2023-05-02T03:07:37.786Z,53.20
2023-05-02T03:08:40.632Z,53.19
2023-05-02T03:10:53.209Z,53.23
2023-05-02T03:11:56.122Z,53.45
2023-05-02T03:12:59.533Z,53.33
2023-05-02T03:14:01.804Z,53.38
2023-05-02T03:15:26.352Z,53.35
2023-05-02T03:16:38.434Z,53.46
2023-05-02T03:17:42.844Z,53.33
2023-05-02T03:18:45.664Z,53.20
2023-05-02T03:19:48.284Z,53.25
2023-05-02T03:20:50.632Z,53.20
2023-05-02T03:21:52.823Z,53.21
2023-05-02T03:22:55.362Z,53.10
2023-05-02T03:24:01.631Z,52.99
2023-05-02T03:25:08.406Z,53.19
2023-05-02T03:26:12.043Z,53.12
2023-05-02T03:27:15.999Z,53.25
2023-05-02T03:28:18.311Z,53.24
2023-05-02T03:29:21.097Z,53.08
2023-05-02T03:30:24.486Z,53.11
2023-05-02T03:31:28.006Z,53.10
2023-05-02T03:32:30.748Z,52.93
2023-05-02T03:33:33.749Z,52.96
2023-05-02T03:34:35.983Z,52.96
2023-05-02T03:35:38.487Z,52.80
2023-05-02T03:36:40.862Z,52.63
2023-05-02T03:37:42.963Z,52.56
2023-05-02T03:38:45.244Z,52.44
2023-05-02T03:39:47.920Z,52.55
2023-05-02T03:40:50.169Z,52.41
2023-05-02T03:41:52.288Z,52.25
2023-05-02T03:42:55.616Z,52.20
2023-05-02T03:43:59.810Z,52.16
2023-05-02T03:45:02.918Z,52.04
2023-05-02T03:46:07.162Z,51.93
2023-05-02T03:47:10.017Z,52.01
2023-05-02T03:48:12.276Z,51.90
2023-05-02T03:49:14.951Z,51.77
2023-05-02T03:50:19.894Z,51.68
2023-05-02T03:51:22.628Z,51.64
2023-05-02T03:52:25.588Z,51.59
2023-05-02T03:53:29.554Z,51.54
2023-05-02T03:54:32.492Z,51.46
2023-05-02T03:56:48.026Z,51.36
2023-05-02T03:57:51.877Z,51.47
2023-05-02T03:58:53.992Z,51.46
2023-05-02T03:59:56.757Z,51.55
2023-05-02T04:01:01.548Z,51.70
2023-05-02T04:02:03.913Z,51.60
2023-05-02T04:03:08.462Z,51.61
2023-05-02T04:04:12.664Z,51.76
2023-05-02T04:05:16.996Z,51.72
2023-05-02T04:06:19.871Z,51.84
2023-05-02T04:07:24.011Z,51.74
2023-05-02T04:08:28.096Z,52.08
2023-05-02T04:09:30.175Z,52.26
2023-05-02T04:10:34.246Z,52.50
2023-05-02T04:11:38.485Z,52.57
2023-05-02T04:12:42.545Z,52.62
2023-05-02T04:13:45.397Z,52.50
2023-05-02T04:14:47.518Z,52.22
2023-05-02T04:15:50.215Z,52.01
2023-05-02T04:16:54.527Z,51.81
2023-05-02T04:17:59.140Z,51.47
2023-05-02T04:19:04.914Z,51.19
2023-05-02T04:20:11.553Z,50.83
2023-05-02T04:21:15.706Z,50.46
2023-05-02T04:22:18.448Z,50.17
2023-05-02T04:23:22.633Z,49.89
2023-05-02T04:24:26.685Z,49.56
2023-05-02T04:25:28.795Z,49.09
2023-05-02T04:26:32.850Z,48.60
2023-05-02T04:27:36.805Z,48.26
2023-05-02T04:28:39.031Z,47.87
2023-05-02T04:29:42.328Z,47.26
2023-05-02T04:30:45.576Z,46.65
2023-05-02T04:31:48.676Z,46.28
2023-05-02T04:32:51.551Z,45.50
2023-05-02T04:33:54.077Z,44.17
2023-05-02T04:34:58.202Z,43.94
2023-05-02T04:36:00.315Z,42.94
2023-05-02T04:37:02.800Z,42.93
2023-05-02T04:38:06.667Z,42.53
2023-05-02T04:39:09.699Z,42.12
2023-05-02T04:40:14.299Z,41.64
2023-05-02T04:41:17.647Z,41.44
2023-05-02T04:42:21.804Z,41.40
2023-05-02T04:43:25.845Z,40.82
2023-05-02T04:44:30.146Z,41.06
2023-05-02T04:45:34.988Z,40.46
2023-05-02T04:46:37.437Z,40.04
2023-05-02T04:47:39.972Z,40.17
2023-05-02T04:48:42.782Z,39.74
2023-05-02T04:49:45.128Z,39.55
2023-05-02T04:50:49.595Z,38.87
2023-05-02T04:51:54.626Z,38.67
2023-05-02T04:52:58.059Z,36.37
2023-05-02T04:54:00.276Z,37.81
2023-05-02T04:55:08.030Z,37.69
2023-05-02T04:56:10.675Z,37.61
2023-05-02T04:57:13.930Z,37.39
2023-05-02T04:58:17.970Z,37.32
2023-05-02T04:59:21.925Z,36.93
2023-05-02T05:00:24.470Z,37.06
2023-05-02T05:01:26.693Z,36.91
2023-05-02T05:02:29.918Z,36.84
2023-05-02T05:03:33.178Z,37.05
2023-05-02T05:04:36.431Z,35.50
2023-05-02T05:05:38.817Z,36.12
2023-05-02T05:06:43.865Z,37.19
2023-05-02T05:07:46.644Z,37.15
2023-05-02T05:08:49.930Z,36.03
2023-05-02T05:09:53.430Z,36.67
2023-05-02T05:10:58.143Z,36.35
2023-05-02T05:12:01.175Z,36.40
2023-05-02T05:13:05.431Z,36.85
2023-05-02T05:14:08.568Z,36.04
2023-05-02T05:15:12.568Z,36.35
2023-05-02T05:16:16.788Z,35.93
2023-05-02T05:17:19.194Z,35.89
2023-05-02T05:18:21.488Z,35.92
2023-05-02T05:19:23.785Z,36.25
2023-05-02T05:20:26.682Z,35.86
2023-05-02T05:21:31.065Z,35.85
2023-05-02T05:22:40.661Z,35.42
2023-05-02T05:23:45.978Z,35.53
2023-05-02T05:24:53.606Z,35.38
2023-05-02T05:26:10.089Z,35.74
2023-05-02T05:27:13.308Z,35.73
2023-05-02T05:28:16.535Z,35.91
2023-05-02T05:29:19.564Z,35.93
2023-05-02T05:30:22.947Z,36.29
2023-05-02T05:31:25.074Z,35.91
2023-05-02T05:32:29.070Z,35.76
2023-05-02T05:37:58.006Z,36.00
2023-05-02T05:39:00.931Z,35.41
2023-05-02T05:40:10.067Z,35.88
2023-05-02T05:41:13.243Z,35.39
2023-05-02T05:42:17.172Z,35.56
2023-05-02T05:43:21.201Z,35.25
2023-05-02T05:44:23.391Z,35.78
2023-05-02T05:45:25.403Z,35.78
2023-05-02T05:46:27.665Z,36.03
2023-05-02T05:47:30.486Z,35.67
2023-05-02T05:48:33.759Z,35.49
2023-05-02T05:49:38.927Z,35.80
2023-05-02T05:50:44.234Z,35.84
2023-05-02T05:51:47.168Z,35.94
2023-05-02T05:52:50.438Z,36.53
2023-05-02T05:53:53.035Z,36.02
2023-05-02T05:54:55.322Z,36.47
2023-05-02T05:55:57.610Z,36.39
2023-05-02T05:56:59.998Z,35.87
2023-05-02T05:58:02.681Z,35.56
2023-05-02T05:59:05.706Z,35.64
2023-05-02T06:00:10.524Z,36.11
2023-05-02T06:01:19.506Z,34.86
2023-05-02T06:02:21.525Z,34.83
2023-05-02T06:03:24.085Z,34.93
2023-05-02T06:04:27.461Z,34.72
2023-05-02T06:05:30.268Z,35.41
2023-05-02T06:06:32.979Z,34.79
2023-05-02T06:07:35.333Z,34.90
2023-05-02T06:08:37.359Z,34.45
2023-05-02T06:09:39.845Z,34.62
2023-05-02T06:10:42.051Z,35.29
2023-05-02T06:11:44.274Z,34.69
2023-05-02T06:12:47.838Z,34.58
2023-05-02T06:13:53.324Z,34.49
2023-05-02T06:14:56.199Z,34.34
2023-05-02T06:16:01.746Z,34.77
2023-05-02T06:17:05.064Z,34.32
2023-05-02T06:18:09.062Z,34.53
2023-05-02T06:19:11.359Z,34.44
2023-05-02T06:20:16.613Z,34.12
2023-05-02T06:21:19.271Z,34.20
2023-05-02T06:22:21.814Z,33.95
2023-05-02T06:24:31.812Z,34.52
2023-05-02T06:25:38.708Z,33.97
2023-05-02T06:26:40.849Z,34.02
2023-05-02T06:27:43.077Z,34.24
2023-05-02T06:28:45.189Z,34.29
2023-05-02T06:29:47.422Z,33.89
2023-05-02T06:31:01.354Z,33.85
2023-05-02T06:32:05.171Z,33.64
2023-05-02T06:33:07.388Z,33.57
2023-05-02T06:34:09.720Z,33.45
2023-05-02T06:35:12.775Z,33.96
2023-05-02T06:36:15.273Z,34.12
2023-05-02T06:37:17.370Z,34.70
2023-05-02T06:38:21.290Z,33.49
2023-05-02T06:39:23.723Z,33.39
2023-05-02T06:40:25.787Z,33.02
2023-05-02T06:41:28.054Z,33.39
2023-05-02T06:42:30.160Z,32.71
2023-05-02T06:43:32.453Z,33.37
2023-05-02T06:44:34.605Z,32.45
2023-05-02T06:45:36.805Z,32.25
2023-05-02T06:46:39.218Z,32.01
2023-05-02T06:47:41.729Z,31.77
2023-05-02T06:48:43.772Z,31.90
2023-05-02T06:49:45.844Z,31.89
2023-05-02T06:50:50.740Z,31.09
2023-05-02T06:51:53.003Z,31.12
2023-05-02T06:52:55.190Z,31.03
2023-05-02T06:53:57.726Z,31.43
2023-05-02T06:54:59.628Z,30.32
2023-05-02T06:56:01.820Z,30.85
2023-05-02T06:57:04.179Z,30.68
2023-05-02T06:58:06.378Z,30.99
2023-05-02T06:59:09.716Z,30.48
2023-05-02T07:01:25.598Z,30.29
2023-05-02T07:02:27.995Z,30.72
2023-05-02T07:03:30.030Z,30.72
2023-05-02T07:04:32.276Z,30.88
2023-05-02T07:05:34.746Z,30.86
2023-05-02T07:06:36.886Z,30.93
2023-05-02T07:07:39.238Z,30.59
2023-05-02T07:08:41.153Z,30.82
2023-05-02T07:09:43.212Z,30.50
2023-05-02T07:10:45.619Z,30.54
2023-05-02T07:11:47.612Z,30.12
2023-05-02T07:12:49.896Z,29.98
2023-05-02T07:13:51.993Z,29.83
2023-05-02T07:14:54.737Z,29.75
2023-05-02T07:15:57.093Z,29.12
2023-05-02T07:18:07.207Z,29.58
2023-05-02T07:19:12.077Z,29.30
2023-05-02T07:20:14.265Z,29.09
2023-05-02T07:21:16.492Z,29.38
2023-05-02T07:22:18.789Z,29.36
2023-05-02T07:23:20.980Z,29.58
2023-05-02T07:24:23.278Z,29.27
2023-05-02T07:25:25.436Z,28.91
2023-05-02T07:26:28.053Z,29.41
2023-05-02T07:27:30.208Z,29.50
2023-05-02T07:28:32.369Z,29.47
2023-05-02T07:29:34.514Z,29.52
2023-05-02T07:30:37.078Z,29.60
2023-05-02T07:31:39.284Z,29.14
2023-05-02T07:32:41.651Z,29.25
2023-05-02T07:33:43.847Z,29.12
2023-05-02T07:34:46.048Z,29.54
2023-05-02T07:35:48.198Z,29.25
2023-05-02T07:36:50.872Z,29.14
2023-05-02T07:37:54.127Z,28.93
2023-05-02T07:38:56.451Z,28.69
2023-05-02T07:39:59.240Z,28.72
2023-05-02T07:41:02.599Z,28.85
2023-05-02T07:42:04.719Z,28.85
2023-05-02T07:43:07.891Z,28.69
2023-05-02T07:44:11.536Z,28.90
2023-05-02T07:45:13.867Z,28.84
2023-05-02T07:46:16.384Z,28.89
2023-05-02T07:47:19.012Z,27.17
2023-05-02T07:48:21.027Z,28.19
2023-05-02T07:49:23.261Z,28.43
2023-05-02T07:50:25.894Z,28.38
2023-05-02T07:51:28.847Z,27.72
2023-05-02T07:52:31.137Z,28.20
2023-05-02T07:53:33.200Z,28.11
2023-05-02T07:54:35.520Z,28.21
2023-05-02T07:55:37.696Z,28.59
2023-05-02T07:56:42.253Z,28.59
2023-05-02T07:57:44.531Z,28.01
2023-05-02T07:58:46.553Z,28.46
2023-05-02T07:59:48.665Z,28.10
2023-05-02T08:00:51.756Z,28.01
2023-05-02T08:01:54.042Z,28.56
2023-05-02T08:02:56.265Z,28.21
2023-05-02T08:03:59.471Z,28.20
2023-05-02T08:05:06.055Z,27.97
2023-05-02T08:06:08.858Z,27.55
2023-05-02T08:07:14.031Z,27.71
2023-05-02T08:08:16.551Z,27.90
2023-05-02T08:09:18.801Z,28.63
2023-05-02T08:10:22.298Z,28.32
2023-05-02T08:11:25.523Z,27.73
2023-05-02T08:12:27.664Z,28.42
2023-05-02T08:13:31.133Z,28.02
2023-05-02T08:14:35.334Z,28.01
2023-05-02T08:15:37.606Z,27.16
2023-05-02T08:16:40.368Z,27.53
2023-05-02T08:17:43.515Z,27.54
2023-05-02T08:18:46.614Z,27.75
2023-05-02T08:19:48.883Z,27.31
2023-05-02T08:20:51.140Z,27.82
2023-05-02T08:21:54.234Z,27.60
2023-05-02T08:22:58.018Z,27.83
2023-05-02T08:24:00.592Z,28.59
2023-05-02T08:25:03.075Z,28.30
2023-05-02T08:26:05.947Z,28.13
2023-05-02T08:27:09.344Z,28.25
2023-05-02T08:28:11.560Z,28.19
2023-05-02T08:29:13.838Z,27.74
2023-05-02T08:30:16.740Z,27.70
2023-05-02T08:31:19.178Z,27.36
2023-05-02T08:32:21.805Z,27.68
2023-05-02T08:33:24.113Z,27.58
2023-05-02T08:34:26.849Z,26.91
2023-05-02T08:35:29.138Z,27.51
2023-05-02T08:36:31.408Z,26.96
2023-05-02T08:37:33.510Z,27.43
2023-05-02T08:38:35.804Z,27.95
2023-05-02T08:39:38.011Z,27.76
2023-05-02T08:40:42.709Z,28.03
2023-05-02T08:41:45.395Z,27.96
2023-05-02T08:42:47.482Z,27.06
2023-05-02T08:43:49.631Z,27.31
2023-05-02T08:44:51.852Z,27.96
2023-05-02T08:45:53.988Z,27.43
2023-05-02T08:46:56.316Z,27.65
2023-05-02T08:47:58.455Z,27.92
2023-05-02T08:49:00.865Z,28.24
2023-05-02T08:50:06.523Z,28.24
2023-05-02T08:51:10.484Z,28.55
2023-05-02T08:52:12.614Z,28.30
2023-05-02T08:53:15.279Z,28.30
2023-05-02T08:54:17.785Z,28.62
2023-05-02T08:55:19.961Z,28.65
2023-05-02T08:56:22.659Z,28.35
2023-05-02T08:57:25.100Z,28.12
2023-05-02T08:58:27.010Z,27.09
2023-05-02T08:59:29.202Z,27.68
2023-05-02T09:00:33.219Z,28.05
2023-05-02T09:01:35.513Z,28.24
2023-05-02T09:02:51.137Z,28.65
2023-05-02T09:03:53.359Z,28.69
2023-05-02T09:04:57.309Z,28.16
2023-05-02T09:06:11.399Z,28.12
2023-05-02T09:07:13.497Z,27.97
2023-05-02T09:08:15.470Z,28.14
2023-05-02T09:09:19.103Z,28.07
2023-05-02T09:10:22.812Z,28.27
2023-05-02T09:11:24.898Z,28.40
2023-05-02T09:12:27.652Z,28.19
2023-05-02T09:13:38.266Z,28.24
2023-05-02T09:14:42.992Z,28.03
2023-05-02T09:15:57.720Z,27.97
2023-05-02T09:17:02.039Z,27.94
2023-05-02T09:19:12.790Z,28.01
2023-05-02T09:20:16.105Z,28.47
2023-05-02T09:21:23.959Z,28.18
2023-05-02T09:22:26.264Z,28.40
2023-05-02T09:23:45.243Z,28.57
2023-05-02T09:24:50.937Z,28.48
2023-05-02T09:25:53.281Z,28.42
2023-05-02T09:27:03.314Z,28.28
2023-05-02T09:28:05.615Z,27.61
2023-05-02T09:29:07.796Z,27.29
2023-05-02T09:30:23.836Z,27.25
2023-05-02T09:31:49.617Z,27.17
2023-05-02T09:32:45.246Z,27.71
2023-05-02T09:33:47.859Z,27.44
2023-05-02T09:35:10.530Z,28.13
2023-05-02T09:36:15.569Z,28.30
2023-05-02T09:37:36.357Z,27.29
2023-05-02T09:38:38.564Z,27.59
2023-05-02T09:39:40.967Z,27.64
2023-05-02T09:40:55.868Z,27.58
2023-05-02T09:41:58.242Z,27.79
2023-05-02T09:43:00.602Z,27.11
2023-05-02T09:45:23.130Z,26.98
2023-05-02T09:46:25.433Z,27.17
2023-05-02T09:47:27.684Z,27.22
2023-05-02T09:48:31.051Z,28.16
2023-05-02T09:49:45.950Z,27.85
2023-05-02T09:50:50.201Z,27.42
2023-05-02T09:51:52.402Z,27.50
2023-05-02T09:53:08.341Z,27.99
2023-05-02T09:54:10.442Z,27.04
2023-05-02T09:56:28.940Z,26.65
2023-05-02T09:57:39.259Z,27.03
2023-05-02T09:58:41.509Z,27.36
2023-05-02T09:59:56.824Z,26.73
2023-05-02T10:00:59.058Z,26.84
2023-05-02T10:02:02.663Z,26.57
2023-05-02T10:03:08.622Z,26.46
2023-05-02T10:04:12.705Z,26.27
2023-05-02T10:05:14.900Z,26.51
2023-05-02T10:06:21.935Z,26.87
2023-05-02T10:07:25.193Z,26.66
2023-05-02T10:08:28.204Z,26.46
2023-05-02T10:09:30.466Z,26.65
2023-05-02T10:10:36.215Z,26.73
2023-05-02T10:12:49.725Z,26.76
2023-05-02T10:13:51.894Z,26.54
2023-05-02T10:14:57.241Z,26.40
2023-05-02T10:16:04.406Z,26.41
2023-05-02T10:17:12.156Z,26.75
2023-05-02T10:18:17.308Z,26.50
2023-05-02T10:20:37.230Z,26.45
2023-05-02T10:21:39.288Z,26.50
2023-05-02T10:22:41.468Z,26.77
2023-05-02T10:23:43.799Z,26.74
2023-05-02T10:26:00.100Z,27.16
2023-05-02T10:27:03.556Z,26.21
2023-05-02T10:28:09.471Z,26.53
2023-05-02T10:29:11.650Z,25.91
2023-05-02T10:30:14.064Z,26.23
2023-05-02T10:31:16.086Z,25.93
2023-05-02T10:32:18.954Z,25.93
2023-05-02T10:33:21.757Z,25.92
2023-05-02T10:34:23.711Z,25.81
2023-05-02T10:35:25.866Z,25.49
2023-05-02T10:36:28.413Z,26.73
2023-05-02T10:37:30.566Z,27.69
2023-05-02T10:38:32.592Z,26.96
2023-05-02T10:39:34.723Z,26.23
2023-05-02T10:40:39.906Z,26.56
2023-05-02T10:41:42.315Z,26.27
2023-05-02T10:42:46.110Z,26.33
2023-05-02T10:43:49.201Z,26.48
2023-05-02T10:44:52.092Z,25.66
2023-05-02T10:45:54.331Z,26.56
2023-05-02T10:46:57.175Z,26.93
2023-05-02T10:49:28.029Z,25.95
2023-05-02T10:50:49.765Z,26.33
2023-05-02T10:51:51.847Z,26.34
2023-05-02T10:52:54.171Z,25.98
2023-05-02T10:54:18.268Z,25.72
2023-05-02T10:55:23.517Z,25.11
2023-05-02T10:56:28.516Z,26.17
2023-05-02T10:57:29.900Z,26.70
2023-05-02T10:58:34.883Z,26.66
2023-05-02T10:59:39.619Z,27.16
2023-05-02T11:00:41.869Z,27.35
2023-05-02T11:01:44.228Z,27.20
2023-05-02T11:02:48.292Z,26.80
2023-05-02T11:03:56.122Z,27.25
2023-05-02T11:05:07.767Z,26.50
2023-05-02T11:06:10.294Z,26.73
2023-05-02T11:07:18.603Z,26.29
2023-05-02T11:08:24.421Z,26.02
2023-05-02T11:09:30.899Z,26.03
2023-05-02T11:10:34.194Z,25.73
2023-05-02T11:11:43.510Z,25.64
2023-05-02T11:12:47.926Z,25.58
2023-05-02T11:13:50.672Z,25.69
2023-05-02T11:14:53.141Z,26.18
2023-05-02T11:15:55.175Z,25.84
2023-05-02T11:17:04.713Z,25.96
2023-05-02T11:18:08.130Z,26.14
2023-05-02T11:19:10.711Z,26.05
2023-05-02T11:20:18.408Z,26.31
2023-05-02T11:22:35.519Z,25.01
2023-05-02T11:23:38.055Z,25.59
2023-05-02T11:24:41.572Z,25.23
2023-05-02T11:25:57.131Z,25.45
2023-05-02T11:27:32.394Z,24.93
2023-05-02T11:28:40.333Z,25.11
2023-05-02T11:29:52.334Z,25.38
2023-05-02T11:30:56.170Z,25.20
2023-05-02T11:31:59.544Z,25.19
2023-05-02T11:33:08.910Z,25.31
2023-05-02T11:34:11.099Z,26.15
2023-05-02T11:35:24.730Z,25.37
2023-05-02T11:36:32.263Z,25.36
2023-05-02T11:37:34.568Z,25.40
2023-05-02T11:38:37.787Z,25.19
2023-05-02T11:39:40.023Z,25.60
2023-05-02T11:42:00.093Z,25.52
2023-05-02T11:43:13.960Z,25.83
2023-05-02T11:44:16.197Z,25.13
2023-05-02T11:45:18.801Z,24.72
2023-05-02T11:46:21.404Z,25.41
2023-05-02T11:47:25.115Z,25.61
2023-05-02T11:48:27.458Z,25.21
2023-05-02T11:49:29.428Z,25.05
2023-05-02T11:50:33.207Z,25.13
2023-05-02T11:51:35.567Z,25.12
2023-05-02T11:53:48.848Z,24.69
2023-05-02T11:54:55.494Z,24.52
2023-05-02T11:55:59.249Z,24.99
2023-05-02T11:57:01.928Z,24.58
2023-05-02T11:58:03.949Z,24.41
2023-05-02T11:59:06.109Z,24.62
2023-05-02T12:00:11.679Z,24.78
2023-05-02T12:01:14.754Z,24.82
2023-05-02T12:02:17.666Z,24.87
2023-05-02T12:03:30.343Z,24.93
2023-05-02T12:04:32.839Z,25.04
2023-05-02T12:05:35.023Z,24.96
2023-05-02T12:06:42.482Z,25.06
2023-05-02T12:07:45.553Z,24.50
2023-05-02T12:08:47.884Z,25.69
2023-05-02T12:11:00.688Z,25.42
2023-05-02T12:12:03.294Z,24.89
2023-05-02T12:13:05.667Z,24.78
2023-05-02T12:14:07.882Z,25.40
2023-05-02T12:15:11.854Z,25.59
2023-05-02T12:16:15.344Z,24.89
2023-05-02T12:17:18.048Z,24.69
2023-05-02T12:18:22.766Z,24.30
2023-05-02T12:19:25.093Z,24.05
2023-05-02T12:20:29.742Z,25.00
2023-05-02T12:21:32.733Z,25.06
2023-05-02T12:22:35.232Z,24.52
2023-05-02T12:24:45.137Z,25.02
2023-05-02T12:25:47.423Z,24.39
2023-05-02T12:26:51.121Z,24.89
2023-05-02T12:28:00.778Z,24.34
2023-05-02T12:29:02.993Z,25.12
2023-05-02T12:30:09.048Z,24.69
2023-05-02T12:31:11.481Z,25.16
2023-05-02T12:32:18.104Z,24.62
2023-05-02T12:33:20.208Z,24.64
2023-05-02T12:34:34.247Z,24.34
2023-05-02T12:35:36.391Z,24.39
2023-05-02T12:36:43.635Z,25.47
2023-05-02T12:37:47.298Z,24.80
2023-05-02T12:40:00.854Z,25.22
2023-05-02T12:41:04.378Z,25.17
2023-05-02T12:42:13.139Z,24.93
2023-05-02T12:43:15.685Z,25.07
2023-05-02T12:44:17.685Z,24.91
2023-05-02T12:45:19.801Z,24.71
2023-05-02T12:46:23.401Z,25.00
2023-05-02T12:47:25.583Z,24.74
2023-05-02T12:48:28.104Z,25.75
2023-05-02T12:49:31.856Z,25.36
2023-05-02T12:51:50.937Z,24.97
2023-05-02T12:52:53.122Z,24.82
2023-05-02T12:53:55.128Z,24.13
2023-05-02T12:55:15.400Z,24.28
2023-05-02T12:56:17.699Z,24.75
2023-05-02T12:57:24.267Z,24.37
2023-05-02T12:58:26.661Z,24.87
2023-05-02T12:59:31.961Z,24.37
2023-05-02T13:00:37.752Z,24.52
2023-05-02T13:01:40.206Z,24.59
2023-05-02T13:02:42.560Z,24.57
2023-05-02T13:03:45.277Z,24.87
2023-05-02T13:04:47.297Z,24.42
2023-05-02T13:05:54.323Z,24.40
2023-05-02T13:06:57.025Z,25.12
2023-05-02T13:07:59.564Z,24.97
2023-05-02T13:09:01.932Z,25.32
2023-05-02T13:10:07.672Z,24.43
2023-05-02T13:11:12.206Z,24.66
2023-05-02T13:12:14.299Z,24.18
2023-05-02T13:13:16.482Z,24.40
2023-05-02T13:14:18.837Z,24.71
2023-05-02T13:15:21.147Z,24.72
2023-05-02T13:16:23.463Z,24.82
2023-05-02T13:17:26.655Z,25.23
2023-05-02T13:18:29.382Z,25.04
2023-05-02T13:19:31.750Z,25.15
2023-05-02T13:20:34.265Z,25.16
2023-05-02T13:21:36.379Z,24.05
2023-05-02T13:22:44.253Z,24.47
2023-05-02T13:23:49.187Z,24.55
2023-05-02T13:24:52.330Z,25.12
2023-05-02T13:25:54.626Z,24.63
2023-05-02T13:26:57.331Z,24.60
2023-05-02T13:27:59.342Z,24.58
2023-05-02T13:29:01.591Z,24.84
2023-05-02T13:30:10.210Z,24.96
2023-05-02T13:31:12.626Z,24.91
2023-05-02T13:32:14.775Z,24.69
2023-05-02T13:33:16.691Z,25.10
2023-05-02T13:34:18.797Z,25.81
2023-05-02T13:35:20.983Z,24.82
2023-05-02T13:36:23.593Z,24.24
2023-05-02T13:38:33.476Z,24.82
2023-05-02T13:39:35.610Z,25.34
2023-05-02T13:40:41.806Z,26.03
2023-05-02T13:41:44.441Z,25.07
2023-05-02T13:42:46.530Z,25.28
2023-05-02T13:43:48.951Z,25.45
2023-05-02T13:44:51.383Z,25.01
2023-05-02T13:45:53.695Z,24.64
2023-05-02T13:46:57.088Z,25.12
2023-05-02T13:47:59.464Z,24.90
2023-05-02T13:49:03.241Z,25.12
2023-05-02T13:50:08.031Z,25.05
2023-05-02T13:51:10.145Z,25.09
2023-05-02T13:52:12.417Z,24.83
2023-05-02T13:53:14.989Z,24.95
2023-05-02T13:54:17.113Z,24.94
2023-05-02T13:55:19.361Z,24.65
2023-05-02T13:56:21.862Z,24.57
2023-05-02T13:57:24.156Z,24.32
2023-05-02T13:58:26.305Z,24.70
2023-05-02T14:00:36.461Z,24.84
2023-05-02T14:01:38.537Z,25.17
2023-05-02T14:02:43.540Z,25.33
2023-05-02T14:03:46.304Z,25.55
2023-05-02T14:04:48.858Z,25.59
2023-05-02T14:05:50.986Z,25.62
2023-05-02T14:08:01.335Z,24.90
2023-05-02T14:09:03.872Z,24.93
2023-05-02T14:10:10.326Z,25.25
2023-05-02T14:11:12.594Z,25.13
2023-05-02T14:12:14.646Z,25.16
2023-05-02T14:13:16.770Z,24.82
2023-05-02T14:14:19.153Z,24.68
2023-05-02T14:15:21.144Z,24.84
2023-05-02T14:16:24.308Z,24.88
2023-05-02T14:17:26.742Z,25.16
2023-05-02T14:18:30.387Z,24.63
2023-05-02T14:19:32.684Z,24.51
2023-05-02T14:20:35.056Z,24.73
2023-05-02T14:21:37.182Z,24.65
2023-05-02T14:22:39.425Z,24.66
2023-05-02T14:23:41.541Z,24.75
2023-05-02T14:24:43.762Z,24.64
2023-05-02T14:25:45.778Z,24.90
2023-05-02T14:26:48.404Z,24.27
2023-05-02T14:27:50.476Z,23.88
2023-05-02T14:28:53.296Z,23.82